Time;durP1;ratioP1;P1;durP2;ratioP2;P2;SDS_P1;SDS_P2;PMS_P1;PMS_P2;Temp;Humidity;BMP_temperature;BMP_pressure;BME280_temperature;BME280_humidity;BME280_pressure;Samples;Min_cycle;Max_cycle;Signal;HPM_P1;HPM_P2
2023/12/24 00:02:26;;;;;;;0.30;0.30;;;;;;;7.81;79.63;96457.09;6126274;23;20559;-77
2023/12/24 00:04:54;;;;;;;0.30;0.30;;;;;;;7.84;80.02;96454.16;6127119;23;20030;-77
2023/12/24 00:07:22;;;;;;;2.05;0.50;;;;;;;7.85;81.09;96445.41;6126626;23;20125;-77
2023/12/24 00:09:50;;;;;;;1.33;0.50;;;;;;;7.87;80.49;96445.22;6126096;23;20026;-77
2023/12/24 00:12:17;;;;;;;0.65;0.38;;;;;;;7.86;79.88;96456.59;6126934;23;20026;-77
2023/12/24 00:14:45;;;;;;;0.30;0.30;;;;;;;7.84;79.31;96449.75;6126497;23;20468;-77
2023/12/24 00:17:12;;;;;;;0.43;0.43;;;;;;;7.83;79.13;96457.75;6126349;23;20025;-77
2023/12/24 00:19:41;;;;;;;0.50;0.40;;;;;;;7.79;79.21;96441.66;6126129;23;20026;-77
2023/12/24 00:22:10;;;;;;;0.35;0.35;;;;;;;7.81;80.56;96460.50;6126927;23;20025;-77
2023/12/24 00:24:38;;;;;;;1.00;0.30;;;;;;;7.81;80.23;96454.50;6126716;23;20350;-77
2023/12/24 00:27:06;;;;;;;0.82;0.40;;;;;;;7.80;79.93;96456.25;6126601;23;20022;-77
2023/12/24 00:29:34;;;;;;;0.35;0.20;;;;;;;7.81;80.01;96447.50;6125784;23;20022;-77
2023/12/24 00:32:02;;;;;;;1.90;0.40;;;;;;;7.82;79.72;96443.13;6126813;23;20105;-77
2023/12/24 00:34:30;;;;;;;0.43;0.40;;;;;;;7.81;79.98;96444.09;6126636;23;20033;-77
2023/12/24 00:36:58;;;;;;;0.50;0.35;;;;;;;7.82;80.71;96446.53;6126417;23;20088;-77
2023/12/24 00:39:26;;;;;;;0.20;0.20;;;;;;;7.82;80.55;96446.53;6126241;23;20101;-77
2023/12/24 00:41:54;;;;;;;1.17;0.45;;;;;;;7.81;79.59;96434.53;6126266;23;20022;-77
2023/12/24 00:44:21;;;;;;;0.30;0.30;;;;;;;7.83;79.39;96440.38;6125941;23;20026;-77
2023/12/24 00:46:49;;;;;;;0.70;0.30;;;;;;;7.87;79.94;96442.63;6126429;23;20097;-77
2023/12/24 00:49:16;;;;;;;0.52;0.25;;;;;;;7.86;80.81;96441.81;6126265;23;20033;-77
2023/12/24 00:51:44;;;;;;;0.65;0.57;;;;;;;7.89;80.77;96425.88;6129483;23;20018;-77
2023/12/24 00:54:14;;;;;;;0.20;0.20;;;;;;;7.89;80.90;96428.47;6132784;23;20029;-77
2023/12/24 00:56:41;;;;;;;0.32;0.30;;;;;;;7.89;79.47;96431.06;6130590;23;20026;-77
2023/12/24 00:59:09;;;;;;;0.30;0.30;;;;;;;7.90;80.06;96417.13;6126280;23;20026;-77
2023/12/24 01:01:36;;;;;;;0.65;0.30;;;;;;;7.91;79.46;96423.13;6126142;23;20025;-77
2023/12/24 01:04:04;;;;;;;0.50;0.20;;;;;;;7.89;79.57;96435.47;6126015;23;20028;-77
2023/12/24 01:06:32;;;;;;;1.10;0.50;;;;;;;7.89;78.88;96414.69;6125811;23;20053;-77
2023/12/24 01:08:59;;;;;;;0.55;0.30;;;;;;;7.92;79.63;96435.16;6126009;23;20053;-77
2023/12/24 01:11:28;;;;;;;0.28;0.20;;;;;;;7.91;78.62;96415.31;6126343;23;20026;-77
2023/12/24 01:13:56;;;;;;;0.93;0.40;;;;;;;7.92;78.47;96435.16;6126302;23;20029;-77
2023/12/24 01:16:23;;;;;;;1.98;0.30;;;;;;;7.91;77.89;96430.91;6125619;23;20034;-77
2023/12/24 01:18:51;;;;;;;0.65;0.50;;;;;;;7.94;79.33;96433.19;6125703;23;20026;-76
2023/12/24 01:21:19;;;;;;;0.50;0.20;;;;;;;7.96;79.65;96423.41;6126359;23;20028;-76
2023/12/24 01:23:47;;;;;;;0.85;0.30;;;;;;;7.96;78.83;96428.59;6126205;23;20021;-77
2023/12/24 01:26:14;;;;;;;1.38;0.40;;;;;;;7.96;78.49;96415.63;6126152;23;20026;-78
2023/12/24 01:28:43;;;;;;;2.10;0.75;;;;;;;7.97;78.46;96425.03;6125617;23;20022;-77
2023/12/24 01:31:11;;;;;;;0.30;0.30;;;;;;;7.97;78.47;96406.88;6126480;23;20025;-77
2023/12/24 01:33:38;;;;;;;0.22;0.20;;;;;;;7.96;78.25;96420.81;6125644;23;20026;-77
2023/12/24 01:36:07;;;;;;;0.55;0.20;;;;;;;7.95;77.72;96430.41;6126066;23;20022;-78
2023/12/24 01:38:34;;;;;;;0.93;0.40;;;;;;;7.95;77.93;96414.81;6125667;23;20026;-77
2023/12/24 01:41:02;;;;;;;0.20;0.20;;;;;;;7.96;78.09;96410.41;6126418;23;20497;-77
2023/12/24 01:43:30;;;;;;;0.82;0.20;;;;;;;7.95;77.01;96414.00;6125999;23;20022;-77
2023/12/24 01:45:59;;;;;;;0.43;0.30;;;;;;;7.96;76.46;96410.41;6125755;23;20085;-77
2023/12/24 01:48:26;;;;;;;0.35;0.20;;;;;;;7.98;77.10;96408.47;6125433;23;20057;-77
2023/12/24 01:50:57;;;;;;;0.47;0.20;;;;;;;7.99;77.02;96402.31;6125656;23;20030;-77
2023/12/24 01:53:24;;;;;;;0.25;0.20;;;;;;;7.96;76.42;96403.47;6125329;23;20472;-77
2023/12/24 01:55:52;;;;;;;0.20;0.20;;;;;;;7.96;77.12;96390.47;6125621;23;20022;-77
2023/12/24 01:58:20;;;;;;;1.38;0.40;;;;;;;7.97;76.29;96391.28;6125451;23;20025;-77
2023/12/24 02:00:48;;;;;;;0.35;0.25;;;;;;;7.98;76.62;96380.72;6125751;23;20030;-77
2023/12/24 02:03:18;;;;;;;0.22;0.22;;;;;;;7.99;76.61;96394.53;6125618;23;20025;-77
2023/12/24 02:05:48;;;;;;;0.30;0.30;;;;;;;7.98;75.43;96405.88;6125485;23;20057;-77
2023/12/24 02:08:16;;;;;;;0.32;0.22;;;;;;;7.99;75.25;96423.91;6125050;23;20053;-78
2023/12/24 02:10:43;;;;;;;0.95;0.60;;;;;;;8.01;76.15;96426.31;6125733;23;20030;-78
2023/12/24 02:13:12;;;;;;;0.52;0.30;;;;;;;8.00;75.32;96420.34;6125750;23;20046;-78
2023/12/24 02:15:40;;;;;;;0.75;0.50;;;;;;;7.99;75.30;96416.09;6125572;23;20080;-77
2023/12/24 02:18:08;;;;;;;0.30;0.30;;;;;;;8.01;75.17;96428.94;6125239;23;20472;-77
2023/12/24 02:20:37;;;;;;;0.47;0.22;;;;;;;7.99;75.87;96416.09;6125671;23;20045;-77
2023/12/24 02:23:06;;;;;;;0.30;0.22;;;;;;;8.00;76.34;96425.53;6125126;23;20069;-77
2023/12/24 02:25:34;;;;;;;0.75;0.35;;;;;;;8.02;76.72;96426.16;6125976;23;20032;-78
2023/12/24 02:28:07;;;;;;;0.20;0.20;;;;;;;8.04;75.73;96434.56;6125444;23;20081;-77
2023/12/24 02:30:36;;;;;;;;;;;;;;;8.06;75.31;96457.78;6126021;23;20034;-77
2023/12/24 02:33:07;;;;;;;0.30;0.30;;;;;;;8.05;75.16;96445.78;6125421;23;19921;-77
2023/12/24 02:35:38;;;;;;;0.30;0.30;;;;;;;8.06;74.99;96452.59;6125619;23;20029;-77
2023/12/24 02:38:07;;;;;;;0.95;0.45;;;;;;;8.06;75.08;96442.19;6125727;23;20083;-77
2023/12/24 02:40:35;;;;;;;1.48;0.20;;;;;;;8.09;75.22;96449.69;6125473;23;20086;-77
2023/12/24 02:43:02;;;;;;;0.40;0.40;;;;;;;8.10;75.12;96469.47;6125635;23;20330;-77
2023/12/24 02:45:30;;;;;;;0.65;0.50;;;;;;;8.09;75.27;96461.84;6125422;23;20026;-77
2023/12/24 02:47:58;;;;;;;0.30;0.25;;;;;;;8.09;74.41;96473.06;6125637;23;20026;-77
2023/12/24 02:50:25;;;;;;;0.28;0.28;;;;;;;8.08;75.74;96466.22;6124969;23;20101;-77
2023/12/24 02:52:53;;;;;;;0.28;0.28;;;;;;;8.09;76.32;96473.06;6125401;23;20089;-77
2023/12/24 02:55:23;;;;;;;1.05;0.65;;;;;;;8.09;76.35;96469.63;6125514;23;20026;-77
2023/12/24 02:57:50;;;;;;;0.75;0.50;;;;;;;8.09;76.19;96467.88;6125065;23;20052;-77
2023/12/24 03:00:18;;;;;;;2.13;0.32;;;;;;;8.09;76.46;96473.06;6124855;23;20096;-77
2023/12/24 03:02:46;;;;;;;0.30;0.30;;;;;;;8.11;75.76;96478.06;6125075;23;20365;-78
2023/12/24 03:05:13;;;;;;;0.90;0.50;;;;;;;8.11;76.25;96476.31;6125437;23;20049;-77
2023/12/24 03:07:41;;;;;;;0.30;0.20;;;;;;;8.13;76.55;96470.91;6125200;23;20032;-77
2023/12/24 03:10:09;;;;;;;0.32;0.30;;;;;;;8.11;75.56;96465.91;6124832;23;20025;-76
2023/12/24 03:12:37;;;;;;;0.22;0.22;;;;;;;8.11;75.57;96471.09;6125206;23;20033;-77
2023/12/24 03:15:07;;;;;;;1.75;0.50;;;;;;;8.09;75.04;96465.25;6130223;23;20026;-77
2023/12/24 03:17:34;;;;;;;0.38;0.20;;;;;;;8.10;74.85;96459.06;6144971;23;20034;-78
2023/12/24 03:20:03;;;;;;;1.17;0.30;;;;;;;8.12;76.58;96451.13;6144007;23;20060;-77
2023/12/24 03:22:31;;;;;;;0.35;0.35;;;;;;;8.13;76.94;96463.13;6142500;23;20033;-78
2023/12/24 03:24:59;;;;;;;0.30;0.30;;;;;;;8.14;76.06;96469.94;6125294;23;20026;-77
2023/12/24 03:27:27;;;;;;;0.60;0.50;;;;;;;8.15;76.55;96448.97;6125245;23;20081;-78
2023/12/24 03:29:56;;;;;;;1.00;0.30;;;;;;;8.15;77.30;96438.59;6124265;23;20030;-77
2023/12/24 03:32:23;;;;;;;0.63;0.50;;;;;;;8.17;78.64;96441.03;6125379;23;20348;-78
2023/12/24 03:34:51;;;;;;;0.40;0.40;;;;;;;8.18;78.38;96437.47;6125125;23;20018;-78
2023/12/24 03:37:18;;;;;;;0.43;0.30;;;;;;;8.14;77.27;96418.78;6125028;23;20085;-78
2023/12/24 03:39:46;;;;;;;0.65;0.30;;;;;;;8.13;77.16;96431.94;6124245;23;20077;-78
2023/12/24 03:42:13;;;;;;;0.30;0.30;;;;;;;8.12;76.56;96423.34;6124465;23;20065;-77
2023/12/24 03:44:41;;;;;;;1.00;0.40;;;;;;;8.11;76.58;96424.34;6125093;23;20046;-76
2023/12/24 03:47:10;;;;;;;1.45;0.30;;;;;;;8.12;77.22;96419.94;6125217;23;20368;-77
2023/12/24 03:49:38;;;;;;;0.47;0.20;;;;;;;8.13;76.16;96422.34;6124529;23;20054;-78
2023/12/24 03:52:06;;;;;;;0.35;0.22;;;;;;;8.14;76.06;96424.00;6125423;23;20096;-76
2023/12/24 03:54:33;;;;;;;0.50;0.50;;;;;;;8.13;75.45;96424.94;6125052;23;20049;-77
2023/12/24 03:57:01;;;;;;;1.30;0.40;;;;;;;8.14;75.84;96423.19;6124805;23;20108;-78
2023/12/24 03:59:30;;;;;;;0.30;0.30;;;;;;;8.13;76.32;96421.56;6124764;23;20026;-78
2023/12/24 04:01:57;;;;;;;0.50;0.30;;;;;;;8.12;75.99;96428.53;6125097;23;20052;-77
2023/12/24 04:04:26;;;;;;;0.35;0.20;;;;;;;8.10;75.31;96422.72;6125501;23;20022;-78
2023/12/24 04:06:54;;;;;;;0.20;0.20;;;;;;;8.10;75.23;96427.91;6124833;23;20049;-77
2023/12/24 04:09:22;;;;;;;0.40;0.30;;;;;;;8.11;75.38;96421.75;6124440;23;20069;-77
2023/12/24 04:11:50;;;;;;;0.32;0.32;;;;;;;8.11;76.34;96434.72;6125278;23;20022;-77
2023/12/24 04:14:18;;;;;;;0.47;0.30;;;;;;;8.13;77.06;96437.94;6124675;23;20065;-76
2023/12/24 04:16:45;;;;;;;0.40;0.40;;;;;;;8.13;77.46;96429.34;6125232;23;20229;-77
2023/12/24 04:19:13;;;;;;;0.52;0.32;;;;;;;8.13;75.78;96424.94;6124552;23;20082;-77
2023/12/24 04:21:42;;;;;;;0.40;0.40;;;;;;;8.13;76.48;96414.56;6124835;23;20104;-77
2023/12/24 04:24:09;;;;;;;1.05;0.50;;;;;;;8.11;76.14;96419.16;6124998;23;20022;-77
2023/12/24 04:26:37;;;;;;;1.50;0.25;;;;;;;8.10;76.29;96414.09;6124622;23;20026;-77
2023/12/24 04:29:05;;;;;;;0.70;0.30;;;;;;;8.10;76.31;96396.72;6124575;23;20032;-77
2023/12/24 04:31:33;;;;;;;0.63;0.40;;;;;;;8.10;76.74;96409.72;6126536;23;20076;-77
2023/12/24 04:34:00;;;;;;;0.57;0.30;;;;;;;8.09;77.45;96417.66;6126439;23;20018;-77
2023/12/24 04:36:28;;;;;;;0.85;0.40;;;;;;;8.08;77.10;96427.25;6126480;23;20021;-77
2023/12/24 04:38:57;;;;;;;0.30;0.30;;;;;;;8.06;75.87;96405.84;6125704;23;20029;-77
2023/12/24 04:41:26;;;;;;;0.57;0.40;;;;;;;8.06;75.78;96411.03;6126814;23;20026;-77
2023/12/24 04:43:54;;;;;;;0.60;0.35;;;;;;;8.07;76.82;96412.66;6126507;23;20025;-77
2023/12/24 04:46:22;;;;;;;0.45;0.30;;;;;;;8.07;76.71;96401.44;6126344;23;20033;-78
2023/12/24 04:48:49;;;;;;;0.52;0.30;;;;;;;8.06;75.55;96385.06;6125920;23;20025;-77
2023/12/24 04:51:17;;;;;;;0.65;0.55;;;;;;;8.08;76.15;96382.28;6126640;23;20026;-77
2023/12/24 04:53:44;;;;;;;1.08;0.45;;;;;;;8.09;76.84;96361.34;6126335;23;20084;-77
2023/12/24 04:56:20;;;;;;;4.57;0.70;;;;;;;8.08;76.25;96356.31;6130602;23;20022;-76
2023/12/24 04:58:48;;;;;;;0.40;0.40;;;;;;;8.09;76.56;96350.97;6132403;23;20026;-77
2023/12/24 05:01:16;;;;;;;0.82;0.52;;;;;;;8.07;75.39;96352.09;6132007;23;20030;-78
2023/12/24 05:03:44;;;;;;;0.47;0.47;;;;;;;8.05;75.95;96342.69;6125867;23;20030;-77
2023/12/24 05:06:12;;;;;;;0.50;0.50;;;;;;;8.04;75.92;96335.84;6126683;23;20022;-77
2023/12/24 05:08:40;;;;;;;0.93;0.60;;;;;;;8.04;76.56;96332.47;6126089;23;20030;-77
2023/12/24 05:11:09;;;;;;;0.70;0.70;;;;;;;8.04;77.61;96332.47;6126644;23;20022;-77
2023/12/24 05:13:38;;;;;;;0.60;0.60;;;;;;;8.04;76.84;96335.84;6126360;23;20058;-77
2023/12/24 05:16:06;;;;;;;0.88;0.50;;;;;;;8.03;75.91;96343.84;6126205;23;20026;-77
2023/12/24 05:18:35;;;;;;;0.63;0.63;;;;;;;8.02;76.72;96335.25;6125928;23;20408;-78
2023/12/24 05:21:03;;;;;;;0.55;0.55;;;;;;;8.02;76.65;96337.84;6126554;23;20187;-77
2023/12/24 05:23:31;;;;;;;0.57;0.52;;;;;;;8.03;78.19;96343.84;6126041;23;20028;-77
2023/12/24 05:25:59;;;;;;;0.80;0.80;;;;;;;8.03;77.41;96354.25;6126177;23;20480;-77
2023/12/24 05:28:26;;;;;;;0.73;0.73;;;;;;;8.02;77.14;96363.81;6125928;23;20030;-77
2023/12/24 05:30:55;;;;;;;0.70;0.60;;;;;;;8.02;77.37;96368.19;6126134;23;20400;-77
2023/12/24 05:33:23;;;;;;;0.50;0.50;;;;;;;8.01;77.58;96357.00;6126346;23;20022;-77
2023/12/24 05:35:55;;;;;;;0.40;0.40;;;;;;;8.02;77.45;96368.19;6126187;23;20022;-77
2023/12/24 05:38:22;;;;;;;2.17;0.90;;;;;;;8.02;77.11;96352.59;6125312;23;20483;-78
2023/12/24 05:40:50;;;;;;;1.63;1.52;;;;;;;8.00;76.98;96333.78;6125609;23;20026;-77
2023/12/24 05:43:17;;;;;;;0.77;0.70;;;;;;;7.98;76.75;96335.75;6126094;23;20030;-78
2023/12/24 05:45:46;;;;;;;1.10;0.70;;;;;;;7.99;77.31;96358.94;6125764;23;20029;-77
2023/12/24 05:48:15;;;;;;;0.55;0.50;;;;;;;7.99;76.73;96347.75;6125366;23;20029;-77
2023/12/24 05:50:42;;;;;;;0.32;0.32;;;;;;;7.99;77.10;96345.97;6126252;23;20409;-77
2023/12/24 05:53:10;;;;;;;0.40;0.40;;;;;;;7.99;76.64;96358.94;6125900;23;20049;-77
2023/12/24 05:55:37;;;;;;;0.40;0.40;;;;;;;7.99;76.17;96355.56;6125377;23;20029;-77
2023/12/24 05:58:05;;;;;;;0.43;0.43;;;;;;;7.98;75.92;96344.38;6126052;23;20030;-77
2023/12/24 06:00:34;;;;;;;0.77;0.65;;;;;;;7.99;76.91;96347.75;6125461;23;20085;-77
2023/12/24 06:03:04;;;;;;;1.10;0.65;;;;;;;7.98;77.67;96346.97;6125228;23;20033;-78
2023/12/24 06:05:33;;;;;;;1.17;1.00;;;;;;;7.98;77.91;96351.31;6127980;23;20041;-77
2023/12/24 06:08:01;;;;;;;1.05;0.70;;;;;;;7.98;77.67;96362.53;6126113;23;20025;-77
2023/12/24 06:10:28;;;;;;;0.45;0.45;;;;;;;7.99;77.40;96345.16;6125512;23;20025;-78
2023/12/24 06:12:56;;;;;;;0.60;0.60;;;;;;;7.99;77.19;96347.75;6126289;23;20065;-78
2023/12/24 06:15:23;;;;;;;0.70;0.50;;;;;;;7.98;77.21;96341.78;6126106;23;20018;-78
2023/12/24 06:17:51;;;;;;;0.68;0.60;;;;;;;7.96;76.33;96343.72;6125879;23;20026;-77
2023/12/24 06:20:19;;;;;;;0.68;0.40;;;;;;;7.96;77.37;96346.31;6125243;23;20029;-77
2023/12/24 06:22:48;;;;;;;0.75;0.73;;;;;;;7.97;77.38;96355.72;6125751;23;20022;-78
2023/12/24 06:25:18;;;;;;;0.68;0.60;;;;;;;7.99;76.98;96339.97;6125843;23;20076;-78
2023/12/24 06:27:45;;;;;;;1.85;0.75;;;;;;;7.99;77.33;96342.56;6126107;23;20101;-77
2023/12/24 06:30:13;;;;;;;0.80;0.45;;;;;;;8.02;77.53;96343.03;6125371;23;20033;-77
2023/12/24 06:32:43;;;;;;;1.20;0.50;;;;;;;8.04;77.53;96338.47;6125645;23;20029;-77
2023/12/24 06:35:11;;;;;;;1.08;0.43;;;;;;;8.02;77.13;96316.25;6125623;23;20022;-76
2023/12/24 06:37:39;;;;;;;1.48;0.47;;;;;;;8.00;75.95;96334.63;6125539;23;20022;-78
2023/12/24 06:40:10;;;;;;;0.90;0.63;;;;;;;8.02;77.79;96327.47;6125044;23;20057;-77
2023/12/24 06:42:37;;;;;;;0.35;0.35;;;;;;;8.07;78.41;96329.53;6125568;23;20026;-77
2023/12/24 06:45:06;;;;;;;0.70;0.50;;;;;;;8.10;78.58;96323.97;6125351;23;20018;-77
2023/12/24 06:47:33;;;;;;;0.43;0.40;;;;;;;8.11;77.21;96327.38;6125495;23;20033;-77
2023/12/24 06:50:01;;;;;;;1.00;0.30;;;;;;;8.09;76.94;96313.75;6124640;23;20490;-78
2023/12/24 06:52:29;;;;;;;0.20;0.20;;;;;;;8.09;76.13;96317.19;6125154;23;20026;-77
2023/12/24 06:54:56;;;;;;;0.57;0.40;;;;;;;8.10;75.87;96320.59;6125579;23;20049;-78
2023/12/24 06:57:25;;;;;;;0.40;0.40;;;;;;;8.11;77.02;96319.59;6125404;23;20026;-77
2023/12/24 06:59:53;;;;;;;0.40;0.40;;;;;;;8.11;76.27;96294.44;6124501;23;20472;-77
2023/12/24 07:02:21;;;;;;;0.50;0.30;;;;;;;8.12;77.22;96293.44;6124930;23;20029;-77
2023/12/24 07:04:49;;;;;;;0.93;0.30;;;;;;;8.13;76.04;96289.06;6125790;23;20081;-78
2023/12/24 07:07:16;;;;;;;0.30;0.20;;;;;;;8.13;75.95;96302.84;6125533;23;20025;-77
2023/12/24 07:09:44;;;;;;;0.40;0.40;;;;;;;8.14;76.40;96296.69;6124872;23;20333;-77
2023/12/24 07:12:12;;;;;;;0.40;0.40;;;;;;;8.15;75.76;96306.06;6125368;23;20026;-77
2023/12/24 07:14:40;;;;;;;0.65;0.35;;;;;;;8.15;76.27;96321.66;6125210;23;20026;-78
2023/12/24 07:17:08;;;;;;;0.35;0.30;;;;;;;8.17;76.43;96319.72;6124660;23;20022;-77
2023/12/24 07:19:36;;;;;;;0.30;0.30;;;;;;;8.18;76.52;96330.94;6124603;23;20025;-78
2023/12/24 07:22:04;;;;;;;0.40;0.40;;;;;;;8.16;76.64;96318.09;6125399;23;20026;-77
2023/12/24 07:24:31;;;;;;;0.40;0.40;;;;;;;8.16;76.87;96320.69;6125520;23;20026;-77
2023/12/24 07:26:59;;;;;;;0.28;0.28;;;;;;;8.16;75.13;96333.69;6125276;23;20065;-78
2023/12/24 07:29:26;;;;;;;0.40;0.30;;;;;;;8.19;75.60;96337.72;6124668;23;20073;-77
2023/12/24 07:31:55;;;;;;;0.73;0.50;;;;;;;8.19;75.65;96328.13;6124035;23;20559;-77
2023/12/24 07:34:23;;;;;;;1.15;0.80;;;;;;;8.19;75.13;96322.13;6124610;23;20377;-77
2023/12/24 07:36:51;;;;;;;0.63;0.40;;;;;;;8.20;75.64;96319.38;6125020;23;20092;-77
2023/12/24 07:39:18;;;;;;;0.90;0.40;;;;;;;8.22;75.01;96314.81;6124851;23;20029;-77
2023/12/24 07:41:47;;;;;;;2.58;0.50;;;;;;;8.25;76.08;96314.47;6125319;23;20026;-77
2023/12/24 07:44:14;;;;;;;0.43;0.43;;;;;;;8.28;76.08;96315.91;6124472;23;20334;-76
2023/12/24 07:46:42;;;;;;;0.25;0.25;;;;;;;8.33;76.54;96320.56;6125148;23;20025;-78
2023/12/24 07:49:11;;;;;;;0.75;0.32;;;;;;;8.34;75.62;96322.19;6124678;23;20543;-77
2023/12/24 07:51:38;;;;;;;0.30;0.30;;;;;;;8.35;76.48;96322.03;6125222;23;20032;-76
2023/12/24 07:54:06;;;;;;;0.43;0.35;;;;;;;8.38;77.60;96323.47;6125483;23;20029;-78
2023/12/24 07:56:33;;;;;;;0.45;0.30;;;;;;;8.42;77.21;96314.38;6124613;23;20078;-77
2023/12/24 07:59:01;;;;;;;2.05;0.38;;;;;;;8.45;77.47;96307.03;6124788;23;20026;-77
2023/12/24 08:01:29;;;;;;;0.40;0.40;;;;;;;8.45;78.08;96303.63;6125658;23;20022;-77
2023/12/24 08:03:57;;;;;;;0.40;0.40;;;;;;;8.45;77.66;96295.81;6124855;23;20022;-77
2023/12/24 08:06:26;;;;;;;0.50;0.50;;;;;;;8.44;77.38;96310.63;6126974;23;20587;-77
2023/12/24 08:08:56;;;;;;;0.30;0.30;;;;;;;8.43;77.69;96303.78;6126559;23;20069;-78
2023/12/24 08:11:24;;;;;;;0.38;0.38;;;;;;;8.42;78.09;96296.19;6126943;23;20511;-78
2023/12/24 08:13:51;;;;;;;0.70;0.50;;;;;;;8.42;78.01;96293.59;6127008;23;20026;-78
2023/12/24 08:16:18;;;;;;;0.30;0.20;;;;;;;8.40;77.73;96293.75;6127050;23;20393;-78
2023/12/24 08:18:46;;;;;;;50.80;27.25;;;;;;;8.40;77.96;96298.13;6126402;23;20022;-77
2023/12/24 08:21:14;;;;;;;25.52;14.63;;;;;;;8.41;77.70;96305.75;6143761;23;20024;-77
2023/12/24 08:23:43;;;;;;;3.55;2.33;;;;;;;8.42;78.00;96322.16;6145733;23;20026;-78
2023/12/24 08:26:10;;;;;;;0.45;0.43;;;;;;;8.42;78.56;96327.38;6140487;23;20026;-77
2023/12/24 08:28:41;;;;;;;2.67;1.30;;;;;;;8.42;77.64;96322.97;6132830;23;20083;-77
2023/12/24 08:31:08;;;;;;;4.93;2.80;;;;;;;8.40;77.71;96319.75;6126883;23;20029;-79
2023/12/24 08:33:37;;;;;;;12.40;7.80;;;;;;;8.39;78.34;96314.69;6127155;23;20401;-78
2023/12/24 08:36:06;;;;;;;1.10;0.50;;;;;;;8.37;79.24;96316.63;6126702;23;20038;-79
2023/12/24 08:38:34;;;;;;;0.20;0.20;;;;;;;8.36;79.24;96309.84;6126565;23;20397;-79
2023/12/24 08:41:03;;;;;;;0.65;0.38;;;;;;;8.36;79.33;96312.44;6127512;23;20022;-78
2023/12/24 08:43:32;;;;;;;12.77;7.82;;;;;;;8.36;79.60;96307.25;6127395;23;20058;-78
2023/12/24 08:46:01;;;;;;;14.32;9.05;;;;;;;8.33;80.02;96307.56;6126541;23;20211;-79
2023/12/24 08:48:28;;;;;;;1.90;1.02;;;;;;;8.33;80.75;96297.19;6126436;23;20036;-79
2023/12/24 08:50:56;;;;;;;0.45;0.40;;;;;;;8.35;81.36;96287.41;6127274;23;20033;-79
2023/12/24 08:53:24;;;;;;;0.43;0.38;;;;;;;8.37;81.06;96293.25;6127142;23;20060;-79
2023/12/24 08:55:52;;;;;;;1.63;1.08;;;;;;;8.35;79.97;96284.81;6126541;23;20026;-78
2023/12/24 08:58:21;;;;;;;10.55;5.78;;;;;;;8.34;79.15;96272.81;6126176;23;20025;-78
2023/12/24 09:00:48;;;;;;;18.70;12.45;;;;;;;8.36;80.20;96253.47;6130591;23;20026;-79
2023/12/24 09:03:17;;;;;;;5.70;3.15;;;;;;;8.40;79.84;96248.72;6136415;23;20021;-78
2023/12/24 09:05:45;;;;;;;0.40;0.40;;;;;;;8.39;78.72;96255.69;6147826;23;20026;-79
2023/12/24 09:08:13;;;;;;;0.17;0.17;;;;;;;8.39;78.26;96249.69;6139167;23;20022;-79
2023/12/24 09:10:41;;;;;;;0.28;0.28;;;;;;;8.41;78.30;96253.75;6132488;23;20113;-80
2023/12/24 09:13:09;;;;;;;0.50;0.43;;;;;;;8.45;78.54;96275.03;6126989;23;20097;-78
2023/12/24 09:15:38;;;;;;;0.30;0.30;;;;;;;8.46;78.22;96271.44;6128932;23;20025;-81
2023/12/24 09:18:06;;;;;;;0.20;0.10;;;;;;;8.48;78.01;96269.47;6129810;23;20018;-81
2023/12/24 09:20:34;;;;;;;0.32;0.30;;;;;;;8.50;79.09;96283.09;6130295;23;20049;-81
2023/12/24 09:23:02;;;;;;;0.25;0.10;;;;;;;8.52;79.73;96286.31;6130513;23;20389;-81
2023/12/24 09:25:30;;;;;;;0.10;0.10;;;;;;;8.55;80.01;96279.97;6130199;23;20044;-81
2023/12/24 09:27:57;;;;;;;0.20;0.10;;;;;;;8.57;79.72;96289.22;6136038;23;20073;-81
2023/12/24 09:30:25;;;;;;;0.15;0.10;;;;;;;8.58;79.19;96293.44;6135359;23;20029;-81
2023/12/24 09:32:54;;;;;;;0.10;0.10;;;;;;;8.59;79.87;96289.84;6134453;23;20021;-81
2023/12/24 09:35:22;;;;;;;1.65;0.30;;;;;;;8.61;80.00;96300.84;6135309;23;20014;-80
2023/12/24 09:37:50;;;;;;;0.20;0.15;;;;;;;8.62;79.89;96312.09;6127477;23;20025;-78
2023/12/24 09:40:17;;;;;;;0.20;0.10;;;;;;;8.63;79.67;96287.69;6126397;23;20318;-79
2023/12/24 09:42:45;;;;;;;0.10;0.10;;;;;;;8.62;79.52;96306.88;6126785;23;20413;-79
2023/12/24 09:45:13;;;;;;;0.08;0.08;;;;;;;8.64;80.03;96304.94;6126624;23;20025;-79
2023/12/24 09:47:41;;;;;;;0.20;0.10;;;;;;;8.63;80.15;96296.28;6127452;23;20055;-80
2023/12/24 09:50:10;;;;;;;0.30;0.28;;;;;;;8.64;80.72;96289.31;6126837;23;20026;-79
2023/12/24 09:52:38;;;;;;;0.20;0.20;;;;;;;8.62;80.90;96292.09;6126880;23;20050;-77
2023/12/24 09:55:07;;;;;;;0.35;0.30;;;;;;;8.64;81.11;96278.91;6127692;23;20025;-80
2023/12/24 09:57:34;;;;;;;11.02;6.32;;;;;;;8.65;81.00;96286.53;6128471;23;20054;-79
2023/12/24 10:00:08;;;;;;;11.18;5.28;;;;;;;8.67;80.71;96283.75;6126175;23;20030;-79
2023/12/24 10:02:35;;;;;;;1.90;1.20;;;;;;;8.69;80.45;96283.59;6127087;23;20036;-79
2023/12/24 10:05:04;;;;;;;1.17;0.38;;;;;;;8.71;80.92;96294.63;6129942;23;20033;-81
2023/12/24 10:07:39;;;;;;;0.10;0.10;;;;;;;8.74;82.31;96283.84;6128944;23;20026;-80
2023/12/24 10:10:09;;;;;;;1.25;0.32;;;;;;;8.75;81.42;96277.69;6129965;23;20029;-81
2023/12/24 10:12:37;;;;;;;0.10;0.10;;;;;;;8.77;80.87;96289.50;6129061;23;20018;-81
2023/12/24 10:15:05;;;;;;;0.47;0.20;;;;;;;8.79;80.43;96287.56;6127780;23;20029;-80
2023/12/24 10:17:34;;;;;;;0.47;0.32;;;;;;;8.79;80.39;96278.91;6131479;23;20022;-80
2023/12/24 10:20:04;;;;;;;0.45;0.20;;;;;;;8.80;80.31;96290.94;6131066;23;20061;-80
2023/12/24 10:22:33;;;;;;;0.65;0.32;;;;;;;8.80;80.43;96291.75;6130916;23;20468;-81
2023/12/24 10:25:05;;;;;;;0.30;0.30;;;;;;;8.81;80.94;96289.94;6128022;23;20017;-81
2023/12/24 10:27:34;;;;;;;0.30;0.30;;;;;;;8.79;80.68;96290.16;6129498;23;20037;-80
2023/12/24 10:30:10;;;;;;;0.20;0.20;;;;;;;8.80;81.07;96296.16;6141830;23;20077;-81
2023/12/24 10:32:39;;;;;;;0.30;0.30;;;;;;;8.80;80.68;96281.34;6144048;23;20026;-81
2023/12/24 10:35:08;;;;;;;0.50;0.20;;;;;;;8.81;82.38;96295.16;6143967;23;20021;-81
2023/12/24 10:37:37;;;;;;;0.30;0.30;;;;;;;8.79;82.17;96282.34;6141890;23;20073;-81
2023/12/24 10:40:08;;;;;;;1.00;0.57;;;;;;;8.78;81.95;96291.13;6142577;23;20021;-81
2023/12/24 10:42:37;;;;;;;1.17;0.43;;;;;;;8.78;82.04;96292.91;6131566;23;20025;-81
2023/12/24 10:45:06;;;;;;;1.38;0.63;;;;;;;8.78;82.10;96290.31;6134893;23;20334;-80
2023/12/24 10:47:35;;;;;;;0.45;0.20;;;;;;;8.79;82.90;96277.16;6126553;23;20022;-80
2023/12/24 10:50:03;;;;;;;0.82;0.82;;;;;;;8.80;83.11;96283.94;6127244;23;20049;-81
2023/12/24 10:52:31;;;;;;;0.47;0.38;;;;;;;8.80;83.01;96277.94;6126189;23;20029;-80
2023/12/24 10:55:02;;;;;;;0.25;0.25;;;;;;;8.78;83.83;96290.31;6127279;23;20368;-80
2023/12/24 11:08:31;;;;;;;0.77;0.50;;;;;;;8.81;85.32;96271.75;6101416;23;20280;-81
2023/12/24 11:11:03;;;;;;;1.05;0.50;;;;;;;8.83;84.63;96267.16;6098129;23;20424;-80
2023/12/24 11:13:45;;;;;;;0.70;0.40;;;;;;;8.87;84.98;96263.22;6097866;23;20026;-81
2023/12/24 11:16:13;;;;;;;0.43;0.43;;;;;;;8.90;84.53;96260.28;6097919;23;20044;-80
2023/12/24 11:18:43;;;;;;;0.30;0.30;;;;;;;8.93;85.32;96252.13;6096103;23;20056;-80
2023/12/24 11:21:12;;;;;;;0.38;0.30;;;;;;;8.94;84.67;96250.31;6098516;23;20365;-81
2023/12/24 11:23:41;;;;;;;1.45;0.35;;;;;;;8.96;85.21;96250.94;6099345;23;20437;-80
2023/12/24 11:26:30;;;;;;;0.45;0.30;;;;;;;8.99;86.02;96242.81;6099077;23;20026;-81
2023/12/24 11:28:57;;;;;;;0.93;0.40;;;;;;;9.00;85.16;96240.00;6097478;23;20053;-79
2023/12/24 11:31:26;;;;;;;0.40;0.40;;;;;;;9.01;84.74;96246.81;6098565;23;20026;-81
2023/12/24 11:33:55;;;;;;;0.65;0.40;;;;;;;9.02;84.43;96252.84;6097990;23;20026;-81
2023/12/24 11:36:24;;;;;;;0.40;0.40;;;;;;;9.00;84.65;96262.59;6106823;23;20067;-81
2023/12/24 11:38:57;;;;;;;0.80;0.80;;;;;;;8.99;84.51;96261.81;6106116;23;20026;-81
2023/12/24 11:41:28;;;;;;;1.20;0.50;;;;;;;8.99;84.63;96267.00;6110836;23;20022;-80
2023/12/24 11:43:57;;;;;;;0.68;0.68;;;;;;;8.98;84.85;96260.19;6102947;23;20022;-81
2023/12/24 11:46:27;;;;;;;0.50;0.25;;;;;;;8.99;85.26;96254.00;6100668;23;20037;-81
2023/12/24 11:48:56;;;;;;;0.68;0.30;;;;;;;9.00;85.23;96270.41;6098961;23;20074;-81
2023/12/24 11:51:26;;;;;;;1.30;0.25;;;;;;;8.97;85.43;96255.97;6100514;23;20026;-81
2023/12/24 11:54:03;;;;;;;0.47;0.30;;;;;;;8.96;85.75;96262.16;6099985;23;20097;-79
2023/12/24 11:56:32;;;;;;;0.40;0.40;;;;;;;8.96;86.06;96245.75;6099958;23;20073;-81
2023/12/24 11:59:01;;;;;;;0.40;0.40;;;;;;;8.96;85.80;96251.75;6105052;23;20070;-80